Time;durP1;ratioP1;P1;durP2;ratioP2;P2;SDS_P1;SDS_P2;PMS_P1;PMS_P2;Temp;Humidity;BMP_temperature;BMP_pressure;BME280_temperature;BME280_humidity;BME280_pressure;Samples;Min_cycle;Max_cycle;Signal;HPM_P1;HPM_P2
2022/03/16 00:00:06;;;;;;;;;18.33;15.33;;;;;12.00;65.09;99914.19;5049668;28;45384;-76
2022/03/16 00:02:31;;;;;;;;;20.00;18.33;;;;;11.99;65.24;99910.66;5053648;28;45502;-76
2022/03/16 00:04:56;;;;;;;;;21.67;19.00;;;;;11.98;65.29;99916.88;5049521;28;45534;-76
2022/03/16 00:07:22;;;;;;;;;14.67;14.67;;;;;11.98;65.29;99905.44;5049473;28;45416;-76
2022/03/16 00:09:48;;;;;;;;;19.33;18.00;;;;;11.95;65.32;99906.41;5053552;28;45372;-75
2022/03/16 00:12:23;;;;;;;;;17.00;15.00;;;;;11.91;65.71;99907.41;5056079;28;45340;-76
2022/03/16 00:14:49;;;;;;;;;16.00;15.33;;;;;11.87;65.94;99911.94;5054367;28;45520;-75
2022/03/16 00:17:16;;;;;;;;;19.00;16.33;;;;;11.82;66.33;99911.22;5054999;28;46161;-76
2022/03/16 00:19:43;;;;;;;;;16.67;14.00;;;;;11.77;66.22;99907.84;5053734;28;45677;-76
2022/03/16 00:22:10;;;;;;;;;20.67;17.00;;;;;11.73;65.96;99902.72;5054868;28;45523;-75
2022/03/16 00:24:36;;;;;;;;;22.67;20.67;;;;;11.69;66.35;99909.88;5046048;28;45433;-77
2022/03/16 00:27:02;;;;;;;;;18.33;17.00;;;;;11.67;66.24;99909.03;5054809;28;45455;-77
2022/03/16 00:29:28;;;;;;;;;15.00;14.67;;;;;11.64;66.50;99908.28;5044781;28;45452;-76
2022/03/16 00:31:54;;;;;;;;;15.33;14.00;;;;;11.61;66.49;99905.72;5050479;28;45386;-76
2022/03/16 00:34:19;;;;;;;;;16.33;15.33;;;;;11.60;66.45;99917.19;5053777;28;45570;-76
2022/03/16 00:36:45;;;;;;;;;17.33;14.33;;;;;11.59;66.55;99915.47;5051434;28;45834;-76
2022/03/16 00:39:11;;;;;;;;;21.33;18.67;;;;;11.56;66.45;99919.09;5047925;28;45356;-75
2022/03/16 00:41:37;;;;;;;;;20.33;18.67;;;;;11.54;66.58;99913.00;5051022;28;45475;-76
2022/03/16 00:44:03;;;;;;;;;18.67;18.33;;;;;11.46;66.33;99907.06;5052920;28;45381;-76
2022/03/16 00:46:29;;;;;;;;;19.33;17.67;;;;;11.38;67.05;99907.34;5052201;28;47867;-76
2022/03/16 00:48:54;;;;;;;;;18.00;16.33;;;;;11.34;66.83;99910.09;5051602;28;45590;-76
2022/03/16 00:51:20;;;;;;;;;17.00;16.67;;;;;11.28;67.37;99915.56;5050912;28;45426;-76
2022/03/16 00:53:46;;;;;;;;;18.00;17.33;;;;;11.24;67.71;99916.56;5053541;28;45469;-76
2022/03/16 00:56:12;;;;;;;;;17.00;16.67;;;;;11.22;67.48;99913.97;5048857;28;45948;-76
2022/03/16 00:58:38;;;;;;;;;19.33;14.67;;;;;11.17;67.87;99907.97;5052106;28;45360;-76
2022/03/16 01:01:07;;;;;;;;;16.33;15.67;;;;;11.14;68.26;99905.41;5068696;28;45381;-76
2022/03/16 01:03:33;;;;;;;;;22.00;19.33;;;;;11.12;68.14;99899.31;5052619;28;45401;-75
2022/03/16 01:05:59;;;;;;;;;22.33;18.67;;;;;11.10;67.80;99898.50;5051347;28;45951;-76
2022/03/16 01:08:24;;;;;;;;;18.00;15.67;;;;;11.09;67.88;99891.47;5054055;28;45488;-76
2022/03/16 01:10:50;;;;;;;;;18.00;14.33;;;;;11.11;68.25;99900.22;5053807;28;45313;-76
2022/03/16 01:13:16;;;;;;;;;21.00;21.00;;;;;11.10;68.34;99898.50;5054424;28;45449;-76
2022/03/16 01:15:41;;;;;;;;;21.67;19.67;;;;;11.06;68.79;99888.97;5040985;28;45507;-76
2022/03/16 01:18:07;;;;;;;;;20.67;15.00;;;;;11.04;68.85;99888.16;5056275;28;45463;-76
2022/03/16 01:20:32;;;;;;;;;19.33;17.67;;;;;11.03;69.08;99887.28;5044261;28;45490;-76
2022/03/16 01:22:58;;;;;;;;;17.67;16.33;;;;;11.01;69.15;99882.94;5057609;28;45362;-75
2022/03/16 01:25:23;;;;;;;;;15.67;13.67;;;;;11.02;69.09;99885.53;5048091;28;45915;-76
2022/03/16 01:27:49;;;;;;;;;7.67;2.67;;;;;11.01;69.20;99882.94;5057370;28;45399;-76
2022/03/16 01:30:14;;;;;;;;;24.33;20.00;;;;;11.01;68.90;99880.31;5043214;28;45363;-76
2022/03/16 01:32:40;;;;;;;;;21.33;16.67;;;;;10.99;68.95;99883.00;5057646;28;45475;-76
2022/03/16 01:35:07;;;;;;;;;16.00;15.33;;;;;10.99;68.79;99883.00;5056982;28;45368;-76
2022/03/16 01:37:33;;;;;;;;;20.67;20.00;;;;;11.01;68.77;99878.53;5072747;28;45600;-76
2022/03/16 01:39:59;;;;;;;;;20.00;15.00;;;;;11.02;68.65;99882.03;5054969;28;45439;-76
2022/03/16 01:42:25;;;;;;;;;18.33;16.67;;;;;11.01;68.92;99881.19;5057237;28;45377;-76
2022/03/16 01:44:53;;;;;;;;;18.33;17.67;;;;;10.96;69.16;99872.53;5056047;28;45523;-76
2022/03/16 01:47:21;;;;;;;;;21.00;19.00;;;;;10.95;69.39;99880.47;5057208;28;45413;-76
2022/03/16 01:49:48;;;;;;;;;18.00;16.00;;;;;10.92;69.27;99878.78;5056864;28;45505;-76
2022/03/16 01:52:20;;;;;;;;;15.33;15.33;;;;;10.90;69.32;99877.97;5067841;28;45478;-75
2022/03/16 01:54:46;;;;;;;;;22.00;19.00;;;;;10.92;69.48;99880.56;5049819;28;46385;-76
2022/03/16 01:57:13;;;;;;;;;16.67;16.67;;;;;10.88;69.49;99868.41;5056840;28;45400;-76
2022/03/16 01:59:39;;;;;;;;;22.33;18.67;;;;;10.84;69.25;99868.47;5071647;28;45530;-76
2022/03/16 02:02:06;;;;;;;;;17.33;14.00;;;;;10.83;69.83;99869.38;5056933;28;45551;-76
2022/03/16 02:04:32;;;;;;;;;24.33;18.00;;;;;10.79;69.92;99865.09;5056325;28;46444;-76
2022/03/16 02:06:59;;;;;;;;;22.67;19.00;;;;;10.75;69.77;99859.97;5057026;28;45373;-76
2022/03/16 02:09:25;;;;;;;;;16.00;10.00;;;;;10.67;70.19;99862.81;5056267;28;45447;-76
2022/03/16 02:11:50;;;;;;;;;15.00;15.00;;;;;10.62;69.69;99870.00;5056664;28;45193;-76
2022/03/16 02:14:17;;;;;;;;;17.33;16.00;;;;;10.59;70.04;99874.47;5054561;28;45504;-76
2022/03/16 02:16:44;;;;;;;;;15.67;15.67;;;;;10.55;70.77;99870.22;5053792;28;45547;-76
2022/03/16 02:19:10;;;;;;;;;18.00;17.00;;;;;10.51;70.57;99876.50;5053231;28;45323;-76
2022/03/16 02:21:37;;;;;;;;;19.67;19.00;;;;;10.48;70.72;99873.03;5053387;28;45395;-75
2022/03/16 02:24:04;;;;;;;;;18.00;16.00;;;;;10.47;71.35;99871.28;5053053;28;46164;-76
2022/03/16 02:26:30;;;;;;;;;17.67;16.00;;;;;10.47;71.59;99857.25;5063041;28;45399;-76
2022/03/16 02:28:56;;;;;;;;;20.00;16.67;;;;;10.46;71.79;99861.66;5051920;28;45442;-76
2022/03/16 02:31:21;;;;;;;;;16.00;13.67;;;;;10.44;71.47;99868.75;5047779;28;45479;-76
2022/03/16 02:33:47;;;;;;;;;16.00;14.00;;;;;10.40;71.64;99863.59;5054874;28;46047;-76
2022/03/16 02:36:12;;;;;;;;;19.67;17.67;;;;;10.39;71.63;99861.88;5048059;28;45578;-75
2022/03/16 02:38:38;;;;;;;;;18.00;17.00;;;;;10.39;72.07;99864.53;5053411;28;45495;-76
2022/03/16 02:41:04;;;;;;;;;17.33;14.00;;;;;10.37;71.96;99874.25;5047724;28;45484;-76
2022/03/16 02:43:29;;;;;;;;;23.67;21.33;;;;;10.36;72.22;99877.78;5055885;28;45554;-76
2022/03/16 02:45:55;;;;;;;;;18.67;18.67;;;;;10.35;71.26;99876.03;5063305;28;45459;-76
2022/03/16 02:48:21;;;;;;;;;19.00;17.00;;;;;10.33;71.86;99872.59;5055600;28;45479;-76
2022/03/16 02:50:47;;;;;;;;;17.67;16.00;;;;;10.31;71.71;99874.38;5050616;28;45395;-76
2022/03/16 02:53:15;;;;;;;;;17.00;15.00;;;;;10.30;71.01;99880.56;5055598;28;46640;-76
2022/03/16 02:55:41;;;;;;;;;19.67;15.33;;;;;10.28;71.39;99877.97;5052307;28;45430;-76
2022/03/16 02:58:07;;;;;;;;;20.00;17.67;;;;;10.27;71.48;99867.47;5071289;28;45341;-76
2022/03/16 03:00:33;;;;;;;;;18.00;16.00;;;;;10.26;71.63;99877.13;5054021;28;45525;-76
2022/03/16 03:02:58;;;;;;;;;18.67;18.33;;;;;10.27;71.85;99873.59;5054321;28;48056;-76
2022/03/16 03:05:24;;;;;;;;;17.67;17.00;;;;;10.27;72.06;99888.53;5051281;28;45500;-76
2022/03/16 03:07:49;;;;;;;;;20.67;20.67;;;;;10.26;71.73;99884.19;5055187;28;45282;-76
2022/03/16 03:10:15;;;;;;;;;16.67;16.33;;;;;10.25;72.17;99883.31;5053994;28;45443;-76
2022/03/16 03:12:40;;;;;;;;;18.67;16.00;;;;;10.24;72.34;99878.94;5055308;28;45589;-76
2022/03/16 03:15:10;;;;;;;;;21.33;20.33;;;;;10.25;72.47;99882.44;5053490;28;45405;-76
2022/03/16 03:17:36;;;;;;;;;23.33;19.33;;;;;10.24;72.17;99876.31;5055904;28;45431;-76
2022/03/16 03:20:01;;;;;;;;;22.00;18.00;;;;;10.25;72.29;99874.53;5043030;28;45414;-76
2022/03/16 03:22:28;;;;;;;;;24.00;18.33;;;;;10.27;72.30;99878.00;5053471;28;45404;-76
2022/03/16 03:24:54;;;;;;;;;23.33;21.33;;;;;10.28;72.45;99885.00;5051667;28;45575;-76
2022/03/16 03:27:21;;;;;;;;;22.00;18.67;;;;;10.28;71.96;99883.25;5070135;27;45478;-76
2022/03/16 03:29:46;;;;;;;;;25.00;24.00;;;;;10.28;72.04;99887.66;5049455;28;45476;-76
2022/03/16 03:32:12;;;;;;;;;21.33;18.33;;;;;10.28;72.12;99892.91;5052357;28;46030;-76
2022/03/16 03:34:37;;;;;;;;;20.33;19.33;;;;;10.27;71.92;99889.41;5063024;28;45636;-76
2022/03/16 03:37:03;;;;;;;;;19.33;18.33;;;;;10.27;71.91;99889.41;5069794;28;45505;-76
2022/03/16 03:39:28;;;;;;;;;22.67;21.33;;;;;10.28;71.84;99887.66;5045179;28;45503;-76
2022/03/16 03:41:54;;;;;;;;;23.67;19.33;;;;;10.27;71.69;99883.28;5053847;28;45795;-76
2022/03/16 03:44:19;;;;;;;;;27.67;23.00;;;;;10.26;71.72;99882.41;5050919;28;45478;-76
2022/03/16 03:46:45;;;;;;;;;21.67;21.00;;;;;10.24;71.84;99886.84;5053209;28;45505;-76
2022/03/16 03:49:10;;;;;;;;;24.00;20.67;;;;;10.25;71.79;99887.72;5050406;28;45564;-76
2022/03/16 03:51:35;;;;;;;;;21.00;18.00;;;;;10.25;71.61;99890.34;5045099;28;46416;-76
2022/03/16 03:54:01;;;;;;;;;19.00;18.00;;;;;10.24;71.60;99891.25;5046188;28;45416;-76
2022/03/16 03:56:26;;;;;;;;;23.67;21.33;;;;;10.20;71.93;99885.22;5054288;28;45758;-75
2022/03/16 03:58:52;;;;;;;;;21.00;19.67;;;;;10.17;72.11;99887.91;5053371;28;45393;-76
2022/03/16 04:01:18;;;;;;;;;23.67;21.67;;;;;10.14;72.04;99894.13;5052915;28;45784;-75
2022/03/16 04:03:43;;;;;;;;;22.00;18.00;;;;;10.12;71.95;99888.00;5054208;28;45498;-72
2022/03/16 04:06:10;;;;;;;;;21.67;18.33;;;;;10.06;72.06;99888.16;5052322;28;45357;-72
2022/03/16 04:08:36;;;;;;;;;19.33;18.67;;;;;10.05;72.26;99883.78;5054232;28;45520;-72
2022/03/16 04:11:02;;;;;;;;;17.67;15.33;;;;;10.01;72.50;99881.31;5050215;28;47871;-75
2022/03/16 04:13:27;;;;;;;;;25.33;21.33;;;;;10.00;72.95;99872.53;5045435;28;45430;-75
2022/03/16 04:15:56;;;;;;;;;18.00;15.67;;;;;9.99;72.87;99872.56;5047790;28;45461;-75
2022/03/16 04:18:23;;;;;;;;;27.00;25.00;;;;;9.97;72.70;99869.09;5070259;28;45314;-75
2022/03/16 04:20:48;;;;;;;;;20.00;19.33;;;;;9.93;73.29;99872.72;5049392;28;46189;-75
2022/03/16 04:23:14;;;;;;;;;34.00;26.00;;;;;9.93;73.26;99876.22;5054640;28;45439;-75
2022/03/16 04:25:40;;;;;;;;;21.00;21.00;;;;;9.92;73.29;99884.16;5041772;28;45481;-75
2022/03/16 04:28:06;;;;;;;;;23.67;23.67;;;;;9.92;73.50;99878.88;5070384;28;45423;-75
2022/03/16 04:30:31;;;;;;;;;30.67;27.00;;;;;9.91;73.58;99871.88;5046382;28;45786;-75
2022/03/16 04:32:56;;;;;;;;;29.67;22.33;;;;;9.93;73.32;99877.97;5054435;28;45341;-75
2022/03/16 04:35:22;;;;;;;;;30.67;26.00;;;;;9.96;73.11;99875.28;5044280;28;45417;-75
2022/03/16 04:37:48;;;;;;;;;34.00;32.67;;;;;9.97;73.13;99869.97;5054043;28;45381;-75
2022/03/16 04:40:14;;;;;;;;;34.00;30.67;;;;;9.98;73.04;99862.94;5043311;28;46628;-75
2022/03/16 04:42:39;;;;;;;;;30.00;30.00;;;;;9.99;72.94;99876.06;5053130;28;45339;-75
2022/03/16 04:45:05;;;;;;;;;34.00;32.00;;;;;10.00;72.91;99869.03;5048606;28;45307;-75
2022/03/16 04:47:31;;;;;;;;;27.00;25.33;;;;;10.01;72.53;99876.91;5054236;28;45368;-75
2022/03/16 04:49:56;;;;;;;;;18.67;17.00;;;;;9.99;72.81;99875.22;5050694;28;45503;-75
2022/03/16 04:52:22;;;;;;;;;25.67;24.67;;;;;9.99;72.91;99880.47;5054393;28;45373;-75
2022/03/16 04:54:48;;;;;;;;;24.00;23.33;;;;;9.98;72.88;99869.06;5051496;28;45551;-75
2022/03/16 04:57:13;;;;;;;;;28.00;23.00;;;;;9.98;72.78;99870.84;5055571;28;45457;-75
2022/03/16 04:59:39;;;;;;;;;25.67;24.00;;;;;9.97;72.70;99874.38;5051181;28;45497;-75
2022/03/16 05:02:04;;;;;;;;;22.33;21.33;;;;;9.97;73.04;99867.34;5057568;28;45384;-75
2022/03/16 05:04:30;;;;;;;;;25.67;25.33;;;;;9.97;72.99;99859.44;5057761;28;45774;-75
2022/03/16 05:06:56;;;;;;;;;22.67;20.00;;;;;9.98;73.04;99862.94;5056348;28;45559;-75
2022/03/16 05:09:21;;;;;;;;;26.67;24.33;;;;;9.99;72.99;99864.66;5055939;28;45948;-75
2022/03/16 05:11:47;;;;;;;;;27.00;24.00;;;;;9.98;73.09;99866.44;5056069;28;45476;-75
2022/03/16 05:14:12;;;;;;;;;26.67;21.00;;;;;9.97;73.12;99861.22;5057145;28;45445;-75
2022/03/16 05:16:38;;;;;;;;;24.00;23.00;;;;;9.95;73.04;99855.97;5057318;28;45408;-75
2022/03/16 05:19:03;;;;;;;;;24.33;20.00;;;;;9.95;73.15;99858.59;5055173;28;46390;-75
2022/03/16 05:21:29;;;;;;;;;25.67;25.00;;;;;9.95;73.04;99860.38;5065914;28;45501;-75
2022/03/16 05:23:54;;;;;;;;;29.00;26.00;;;;;9.94;73.25;99858.66;5054527;28;45790;-75
2022/03/16 05:26:19;;;;;;;;;24.33;23.00;;;;;9.93;73.32;99857.78;5052456;28;45577;-75
2022/03/16 05:28:45;;;;;;;;;25.00;22.67;;;;;9.95;73.08;99855.97;5056142;28;45420;-75
2022/03/16 05:31:10;;;;;;;;;32.67;26.33;;;;;9.95;73.13;99850.72;5056926;28;45381;-75
2022/03/16 05:33:36;;;;;;;;;31.00;23.00;;;;;9.94;72.92;99846.34;5056448;28;45632;-75
2022/03/16 05:36:02;;;;;;;;;32.67;31.33;;;;;9.93;72.71;99844.59;5049643;28;45323;-75
2022/03/16 05:38:28;;;;;;;;;35.00;30.67;;;;;9.93;72.92;99844.59;5055436;28;47958;-75
2022/03/16 05:40:53;;;;;;;;;33.67;29.67;;;;;9.92;72.77;99840.25;5051903;28;45422;-75
2022/03/16 05:43:21;;;;;;;;;33.33;29.00;;;;;9.91;72.98;99838.50;5055754;28;45466;-75
2022/03/16 05:45:47;;;;;;;;;35.67;32.00;;;;;9.90;72.79;99834.16;5048175;28;45558;-75
2022/03/16 05:48:12;;;;;;;;;38.00;30.33;;;;;9.89;72.75;99834.19;5056887;28;45470;-75
2022/03/16 05:50:40;;;;;;;;;35.33;33.00;;;;;9.89;73.09;99831.56;5052758;28;45399;-75
2022/03/16 05:53:06;;;;;;;;;26.33;25.33;;;;;9.88;73.23;99837.75;5071851;28;45356;-75
2022/03/16 05:55:32;;;;;;;;;25.67;23.33;;;;;9.86;73.02;99831.66;5054338;28;45518;-75
2022/03/16 05:57:57;;;;;;;;;29.00;28.00;;;;;9.86;73.30;99831.66;5055780;28;46372;-75
2022/03/16 06:00:23;;;;;;;;;27.00;26.33;;;;;9.86;73.18;99831.66;5057192;28;45526;-75
2022/03/16 06:02:49;;;;;;;;;26.33;25.67;;;;;9.87;73.16;99836.03;5054650;28;45519;-75
2022/03/16 06:05:16;;;;;;;;;25.33;24.33;;;;;9.87;73.16;99839.53;5056874;28;45508;-75
2022/03/16 06:07:43;;;;;;;;;30.00;26.00;;;;;9.88;73.08;99846.53;5056088;28;46441;-75
2022/03/16 06:10:11;;;;;;;;;28.33;25.67;;;;;9.88;73.23;99843.03;5055288;28;45365;-75
2022/03/16 06:12:54;;;;;;;;;39.67;29.00;;;;;9.89;72.91;99842.09;5053576;28;45350;-75
2022/03/16 06:15:20;;;;;;;;;25.00;23.33;;;;;9.91;73.12;99841.16;5051857;28;45397;-75
2022/03/16 06:17:46;;;;;;;;;24.50;23.00;;;;;9.94;73.23;99848.97;5053505;28;46792;-76
2022/03/16 06:20:11;;;;;;;;;30.33;26.67;;;;;9.97;72.95;99845.41;5055715;28;45508;-75
2022/03/16 06:22:37;;;;;;;;;28.33;26.67;;;;;10.01;72.89;99841.78;5055144;28;45387;-75
2022/03/16 06:25:02;;;;;;;;;33.33;22.33;;;;;10.02;72.87;99841.75;5071958;27;45447;-77
2022/03/16 06:27:28;;;;;;;;;29.00;25.00;;;;;10.04;73.03;99849.63;5062074;28;46281;-77
2022/03/16 06:29:53;;;;;;;;;26.67;25.00;;;;;10.08;73.13;99853.88;5056336;28;45428;-76
2022/03/16 06:32:19;;;;;;;;;30.00;27.33;;;;;10.10;72.64;99855.56;5055362;28;45736;-77
2022/03/16 06:34:46;;;;;;;;;26.67;24.67;;;;;10.13;72.95;99855.50;5067906;28;45504;-58
2022/03/16 06:37:12;;;;;;;;;23.67;23.67;;;;;10.23;72.72;99855.28;5054775;28;45433;-62
2022/03/16 06:39:38;;;;;;;;;29.00;28.00;;;;;10.31;72.32;99855.94;5052814;28;45495;-62
2022/03/16 06:42:03;;;;;;;;;25.33;23.00;;;;;10.35;72.05;99852.31;5055090;28;45788;-63
2022/03/16 06:44:29;;;;;;;;;21.33;20.33;;;;;10.38;71.79;99858.38;5052008;28;45509;-63
2022/03/16 06:46:54;;;;;;;;;24.67;21.33;;;;;10.43;71.32;99852.97;5053871;28;46264;-63
2022/03/16 06:49:20;;;;;;;;;26.00;21.67;;;;;10.47;71.08;99855.47;5055678;28;45550;-63
2022/03/16 06:51:45;;;;;;;;;24.00;19.67;;;;;10.54;71.06;99843.00;5052901;28;45380;-63
2022/03/16 06:54:11;;;;;;;;;22.00;18.67;;;;;10.60;71.06;99844.56;5052681;28;45527;-64
2022/03/16 06:56:36;;;;;;;;;22.00;19.33;;;;;10.64;71.05;99843.59;5052416;28;45487;-63
2022/03/16 06:59:02;;;;;;;;;22.33;21.00;;;;;10.70;70.58;99848.69;5053895;28;45778;-63
2022/03/16 07:01:27;;;;;;;;;26.00;22.67;;;;;10.76;70.46;99849.38;5054342;28;45380;-64
2022/03/16 07:03:53;;;;;;;;;25.33;21.33;;;;;10.84;70.44;99838.59;5053506;28;45488;-64
2022/03/16 07:06:18;;;;;;;;;24.00;19.67;;;;;10.91;70.04;99852.47;5053927;28;46605;-64
2022/03/16 07:08:44;;;;;;;;;19.67;19.67;;;;;10.93;70.33;99850.63;5052742;28;45589;-64
2022/03/16 07:11:09;;;;;;;;;23.00;20.67;;;;;10.95;70.00;99851.47;5054293;28;45978;-63
2022/03/16 07:13:35;;;;;;;;;17.00;14.00;;;;;10.99;69.86;99853.09;5054554;28;45408;-64
2022/03/16 07:16:00;;;;;;;;;28.00;21.67;;;;;11.04;69.66;99848.56;5048387;28;46323;-63
2022/03/16 07:18:25;;;;;;;;;29.00;25.00;;;;;11.09;69.53;99846.63;5054542;28;45408;-63
2022/03/16 07:20:51;;;;;;;;;23.67;21.33;;;;;11.12;69.73;99846.53;5046623;28;45476;-63
2022/03/16 07:23:18;;;;;;;;;24.33;23.33;;;;;11.17;69.52;99848.13;5053982;28;45341;-63
2022/03/16 07:25:46;;;;;;;;;23.33;22.33;;;;;11.24;69.30;99845.28;5047046;28;46510;-63
2022/03/16 07:28:12;;;;;;;;;31.00;23.67;;;;;11.32;69.37;99843.28;5070090;28;45401;-63
2022/03/16 07:30:39;;;;;;;;;28.67;25.67;;;;;11.41;69.07;99848.25;5047722;28;45385;-67
2022/03/16 07:33:06;;;;;;;;;19.33;19.33;;;;;11.48;68.82;99841.88;5054572;28;45554;-67
2022/03/16 07:35:32;;;;;;;;;25.33;22.67;;;;;11.57;68.72;99840.72;5054345;28;45446;-67
2022/03/16 07:38:01;;;;;;;;;22.67;19.00;;;;;11.66;68.80;99841.28;5052854;28;46056;-67
2022/03/16 07:40:27;;;;;;;;;32.00;28.67;;;;;11.74;68.22;99841.00;5048412;28;45358;-68
2022/03/16 07:42:52;;;;;;;;;29.33;27.33;;;;;11.80;67.90;99833.78;5052735;28;45497;-68
2022/03/16 07:45:19;;;;;;;;;24.00;23.00;;;;;11.87;67.59;99837.09;5052957;28;45876;-68
2022/03/16 07:47:46;;;;;;;;;8.00;6.67;;;;;11.94;67.89;99829.81;5052970;28;45535;-68
2022/03/16 07:50:12;;;;;;;;;34.33;29.00;;;;;12.00;67.65;99845.47;5065629;28;45423;-68
2022/03/16 07:52:37;;;;;;;;;25.00;23.67;;;;;12.09;67.21;99842.50;5054367;28;45472;-68
2022/03/16 07:55:04;;;;;;;;;31.67;27.00;;;;;12.18;66.94;99836.91;5044111;28;45481;-68
2022/03/16 07:57:30;;;;;;;;;28.33;26.33;;;;;12.24;66.85;99834.88;5048747;28;45370;-68
2022/03/16 07:59:56;;;;;;;;;32.33;27.00;;;;;12.34;66.78;99834.59;5050808;28;45454;-68
2022/03/16 08:02:22;;;;;;;;;23.00;21.67;;;;;12.43;66.43;99834.22;5054396;28;45544;-68
2022/03/16 08:04:47;;;;;;;;;25.00;23.00;;;;;12.53;66.25;99843.56;5049888;28;45406;-68
2022/03/16 08:07:13;;;;;;;;;25.67;22.67;;;;;12.61;65.93;99840.63;5053927;28;45322;-68
2022/03/16 08:09:38;;;;;;;;;27.33;26.33;;;;;12.62;65.47;99845.88;5049357;28;45413;-68
2022/03/16 08:12:04;;;;;;;;;27.67;25.00;;;;;12.56;65.24;99846.97;5047441;28;45430;-68
2022/03/16 08:14:30;;;;;;;;;25.67;22.67;;;;;12.53;65.84;99849.72;5050213;28;45498;-68
2022/03/16 08:16:55;;;;;;;;;29.00;27.67;;;;;12.56;65.92;99838.19;5047137;28;45462;-68
2022/03/16 08:19:21;;;;;;;;;32.33;26.67;;;;;12.56;65.78;99843.47;5053443;28;45454;-69
2022/03/16 08:21:47;;;;;;;;;33.00;30.33;;;;;12.56;65.62;99851.41;5054021;28;45258;-68
2022/03/16 08:24:13;;;;;;;;;26.33;24.33;;;;;12.58;65.61;99845.13;5050647;28;45676;-67
2022/03/16 08:26:39;;;;;;;;;26.33;24.00;;;;;12.62;65.30;99852.94;5065296;28;45359;-67
2022/03/16 08:29:05;;;;;;;;;27.00;23.67;;;;;12.68;65.25;99844.78;5053714;28;45365;-67
2022/03/16 08:31:30;;;;;;;;;30.33;24.00;;;;;12.77;65.22;99841.78;5050987;28;45530;-68
2022/03/16 08:33:56;;;;;;;;;28.33;24.00;;;;;12.86;64.91;99837.03;5052060;28;46335;-68
2022/03/16 08:36:22;;;;;;;;;29.00;28.00;;;;;12.96;64.92;99831.38;5048478;28;45402;-68
2022/03/16 08:38:47;;;;;;;;;31.00;26.67;;;;;13.08;64.42;99826.47;5053275;28;45349;-68
2022/03/16 08:41:13;;;;;;;;;29.00;25.67;;;;;13.18;64.24;99833.16;5048689;28;45520;-68
2022/03/16 08:43:38;;;;;;;;;31.33;26.67;;;;;13.25;64.00;99828.47;5053641;28;45903;-68
2022/03/16 08:46:04;;;;;;;;;33.67;30.33;;;;;13.30;63.83;99821.22;5064661;28;45494;-68
2022/03/16 08:48:30;;;;;;;;;32.33;29.33;;;;;13.37;63.78;99827.16;5053902;28;45482;-68
2022/03/16 08:50:56;;;;;;;;;26.67;26.33;;;;;13.42;63.83;99827.81;5051821;28;45555;-68
2022/03/16 08:53:21;;;;;;;;;30.33;28.33;;;;;13.49;63.23;99830.16;5052980;28;46291;-68
2022/03/16 08:55:47;;;;;;;;;35.00;31.00;;;;;13.53;62.89;99822.97;5046848;28;45401;-66
2022/03/16 08:58:15;;;;;;;;;24.33;22.00;;;;;13.55;63.10;99835.22;5053808;28;45421;-68
2022/03/16 09:00:42;;;;;;;;;32.00;28.33;;;;;13.60;62.98;99816.47;5050611;28;45357;-67
2022/03/16 09:03:08;;;;;;;;;33.33;27.67;;;;;13.67;62.72;99827.69;5054154;28;46028;-68
2022/03/16 09:05:34;;;;;;;;;29.67;26.67;;;;;13.76;62.33;99830.81;5053443;28;45621;-68
2022/03/16 09:08:00;;;;;;;;;31.33;29.33;;;;;13.83;62.33;99820.81;5053728;28;45600;-68
2022/03/16 09:10:27;;;;;;;;;30.00;27.67;;;;;13.88;62.27;99816.19;5052005;28;45496;-68
2022/03/16 09:12:52;;;;;;;;;24.67;23.00;;;;;13.96;62.03;99819.38;5052155;28;46898;-68
2022/03/16 09:15:18;;;;;;;;;32.67;29.33;;;;;14.00;61.85;99820.09;5043808;28;45381;-68
2022/03/16 09:17:43;;;;;;;;;37.33;32.33;;;;;14.07;61.93;99817.13;5053570;28;45420;-67
2022/03/16 09:20:09;;;;;;;;;36.33;31.67;;;;;14.21;61.94;99805.91;5040144;28;45360;-68
2022/03/16 09:22:34;;;;;;;;;31.67;29.33;;;;;14.29;61.33;99801.97;5053769;28;46252;-68
2022/03/16 09:25:00;;;;;;;;;29.67;27.33;;;;;14.39;61.14;99815.72;5053857;28;45235;-68
2022/03/16 09:27:26;;;;;;;;;32.67;31.00;;;;;14.47;61.06;99810.94;5052892;28;45395;-68
2022/03/16 09:29:55;;;;;;;;;31.00;27.67;;;;;14.55;60.69;99802.66;5044618;28;45455;-68
2022/03/16 09:32:23;;;;;;;;;37.67;31.00;;;;;14.55;60.62;99802.66;5051764;28;47563;-68
2022/03/16 09:34:50;;;;;;;;;35.67;30.67;;;;;14.57;60.70;99804.31;5046623;28;45510;-68
2022/03/16 09:37:16;;;;;;;;;35.00;30.67;;;;;14.63;60.09;99796.06;5054175;28;45404;-68
2022/03/16 09:39:42;;;;;;;;;37.00;32.33;;;;;14.69;60.58;99797.56;5046372;28;45593;-68
2022/03/16 09:42:11;;;;;;;;;33.67;30.67;;;;;14.78;60.24;99802.44;5053071;28;46174;-65
2022/03/16 09:44:37;;;;;;;;;30.00;27.00;;;;;14.88;59.69;99802.91;5053573;28;45415;-68
2022/03/16 09:47:04;;;;;;;;;29.00;27.00;;;;;14.98;59.51;99797.06;5055881;28;45578;-64
2022/03/16 09:49:34;;;;;;;;;32.33;28.33;;;;;15.08;59.63;99796.66;5053300;28;45517;-62
2022/03/16 09:52:00;;;;;;;;;37.00;33.00;;;;;15.11;59.27;99807.09;5048534;28;45538;-63
2022/03/16 09:54:26;;;;;;;;;43.00;34.33;;;;;15.12;59.19;99803.50;5054022;28;45460;-66
2022/03/16 09:56:53;;;;;;;;;24.00;22.67;;;;;15.16;59.29;99799.78;5055101;28;45487;-67
2022/03/16 09:59:29;;;;;;;;;35.67;29.67;;;;;15.21;58.78;99795.13;5052846;28;45526;-64
2022/03/16 10:02:00;;;;;;;;;36.00;32.67;;;;;15.22;58.36;99808.34;5047969;28;45525;-67
2022/03/16 10:04:30;;;;;;;;;38.00;32.67;;;;;15.20;57.97;99804.03;5053967;28;45614;-67
2022/03/16 10:07:26;;;;;;;;;34.00;29.67;;;;;15.18;57.57;99798.78;5057639;28;45380;-64
2022/03/16 10:15:20;;;;;;;;;30.67;28.33;;;;;15.41;57.63;99791.50;5049405;28;45436;-64
2022/03/16 10:17:49;;;;;;;;;30.33;26.33;;;;;15.49;57.57;99791.97;5056451;28;45347;-64
2022/03/16 10:20:21;;;;;;;;;31.33;28.33;;;;;15.57;57.44;99781.88;5049384;28;45548;-64
2022/03/16 10:22:59;;;;;;;;;33.67;31.33;;;;;15.58;57.30;99781.78;5054550;28;47043;-64
2022/03/16 10:25:30;;;;;;;;;34.33;32.33;;;;;15.61;57.27;99781.63;5051112;28;45443;-64
2022/03/16 10:28:16;;;;;;;;;33.67;29.33;;;;;15.69;57.14;99778.59;5056203;28;45348;-67
2022/03/16 10:31:05;;;;;;;;;33.33;29.33;;;;;15.77;56.95;99776.38;5046585;28;45415;-68
2022/03/16 10:33:33;;;;;;;;;37.00;30.33;;;;;15.85;57.32;99771.53;5050731;28;47852;-69
2022/03/16 10:36:03;;;;;;;;;35.33;29.33;;;;;15.90;56.45;99766.00;5046239;28;45450;-68
2022/03/16 10:38:43;;;;;;;;;33.00;30.33;;;;;15.97;56.71;99757.59;5055747;28;45401;-67
2022/03/16 10:47:26;;;;;;;;;33.00;29.00;;;;;16.10;56.61;99746.31;5056000;28;45407;-68
2022/03/16 10:50:07;;;;;;;;;27.33;24.33;;;;;16.13;56.58;99743.50;5069764;28;45608;-68
2022/03/16 10:52:34;;;;;;;;;33.33;32.33;;;;;16.11;55.93;99750.69;5054456;28;45539;-64
2022/03/16 10:55:04;;;;;;;;;31.33;29.00;;;;;16.09;55.74;99744.63;5051836;28;45489;-64
2022/03/16 10:57:31;;;;;;;;;35.67;29.67;;;;;16.09;55.84;99748.13;5070021;28;45456;-64
2022/03/16 10:59:58;;;;;;;;;36.33;32.33;;;;;16.08;55.60;99738.44;5048853;28;45501;-64
2022/03/16 11:02:33;;;;;;;;;30.33;26.00;;;;;16.14;55.99;99737.25;5064766;28;45462;-64
2022/03/16 11:04:58;;;;;;;;;35.00;25.67;;;;;16.23;55.70;99732.31;5053069;28;45453;-64
2022/03/16 11:07:25;;;;;;;;;34.33;29.33;;;;;16.32;54.71;99730.94;5054579;28;45479;-68
2022/03/16 11:09:51;;;;;;;;;24.33;21.67;;;;;16.31;54.63;99724.75;5054199;28;45416;-68
2022/03/16 11:15:05;;;;;;;;;29.00;27.00;;;;;16.54;54.80;99714.69;5054547;28;45349;-64
2022/03/16 11:17:32;;;;;;;;;29.00;25.67;;;;;16.68;54.24;99709.47;5070347;28;45432;-64
2022/03/16 11:20:00;;;;;;;;;24.00;24.00;;;;;16.79;54.02;99704.41;5048189;28;45432;-64
2022/03/16 11:22:26;;;;;;;;;24.00;21.00;;;;;16.76;53.31;99699.25;5053721;28;45523;-64
2022/03/16 11:25:05;;;;;;;;;24.25;22.00;;;;;16.77;53.62;99695.63;5048937;28;45487;-64
2022/03/16 11:27:46;;;;;;;;;23.25;20.75;;;;;16.90;53.21;99690.50;5054182;28;45418;-64
2022/03/16 11:30:14;;;;;;;;;12.50;12.50;;;;;16.99;53.05;99682.81;5047986;28;45463;-65